createdAt,value
2019-03-08T00:01:19.534Z,8.85
2019-03-08T00:03:49.044Z,6.25
2019-03-08T00:06:18.566Z,4.50
2019-03-08T00:08:48.157Z,4.85
2019-03-08T00:11:17.754Z,10.48
2019-03-08T00:13:47.262Z,8.80
2019-03-08T00:16:16.764Z,8.13
2019-03-08T00:18:46.280Z,10.55
2019-03-08T00:21:15.779Z,4.62
2019-03-08T00:23:45.367Z,5.97
2019-03-08T00:26:14.872Z,6.55
2019-03-08T00:28:44.380Z,8.00
2019-03-08T00:31:13.921Z,11.30
2019-03-08T00:33:43.500Z,8.00
2019-03-08T00:36:13.258Z,4.35
2019-03-08T00:38:42.781Z,4.65
2019-03-08T00:41:12.274Z,6.33
2019-03-08T00:43:41.863Z,10.65
2019-03-08T00:46:11.373Z,5.63
2019-03-08T00:48:41.964Z,6.07
2019-03-08T00:51:11.473Z,7.27
2019-03-08T00:53:40.984Z,6.67
2019-03-08T00:56:10.477Z,9.50
2019-03-08T00:58:39.986Z,3.27
2019-03-08T01:01:09.491Z,6.80
2019-03-08T01:03:39.094Z,4.27
2019-03-08T01:06:08.599Z,4.33
2019-03-08T01:08:38.127Z,6.47
2019-03-08T01:11:07.628Z,7.37
2019-03-08T01:13:37.128Z,6.70
2019-03-08T01:16:06.639Z,5.27
2019-03-08T01:18:36.223Z,5.80
2019-03-08T01:21:05.806Z,7.83
2019-03-08T01:23:35.322Z,7.20
2019-03-08T01:26:05.501Z,6.17
2019-03-08T01:28:36.430Z,9.18
2019-03-08T01:31:06.193Z,7.80
2019-03-08T01:33:35.720Z,4.75
2019-03-08T01:36:05.298Z,6.62
2019-03-08T01:38:34.809Z,5.10
2019-03-08T01:41:04.330Z,4.87
2019-03-08T01:43:34.117Z,6.22
2019-03-08T01:46:03.616Z,7.53
2019-03-08T01:48:33.109Z,5.72
2019-03-08T01:51:02.616Z,7.03
2019-03-08T01:53:32.122Z,4.75
2019-03-08T01:56:01.642Z,9.25
2019-03-08T01:58:31.146Z,5.97
2019-03-08T02:01:00.648Z,5.50
2019-03-08T02:03:31.217Z,6.50
2019-03-08T02:06:00.706Z,6.70
2019-03-08T02:08:30.198Z,7.65
2019-03-08T02:10:59.983Z,9.10
2019-03-08T02:13:29.492Z,6.17
2019-03-08T02:15:59.959Z,9.43
2019-03-08T02:18:29.456Z,8.88
2019-03-08T02:21:06.460Z,6.47
2019-03-08T02:23:30.146Z,5.78
2019-03-08T02:25:59.659Z,7.50
2019-03-08T02:28:29.165Z,11.20
2019-03-08T02:30:58.673Z,7.97
2019-03-08T02:33:29.159Z,5.78
2019-03-08T02:35:58.684Z,8.45
2019-03-08T02:38:28.458Z,7.37
2019-03-08T02:40:57.959Z,5.08
2019-03-08T02:43:27.454Z,6.85
2019-03-08T02:45:57.030Z,6.00
2019-03-08T02:48:26.521Z,8.18
2019-03-08T02:50:56.027Z,9.10
2019-03-08T02:53:25.518Z,8.10
2019-03-08T02:55:55.023Z,8.53
2019-03-08T02:58:24.591Z,6.70
2019-03-08T03:00:54.095Z,5.47
2019-03-08T03:03:23.597Z,7.58
2019-03-08T03:05:53.184Z,4.95
2019-03-08T03:08:22.678Z,4.92
2019-03-08T03:10:52.179Z,4.20
2019-03-08T03:13:21.677Z,1.72
2019-03-08T03:15:51.257Z,5.30
2019-03-08T03:18:21.037Z,4.20
2019-03-08T03:20:50.547Z,3.33
2019-03-08T03:23:20.042Z,3.23
2019-03-08T03:25:49.558Z,3.07
2019-03-08T03:28:19.052Z,2.50
2019-03-08T03:30:48.569Z,4.00
2019-03-08T03:33:18.054Z,2.60
2019-03-08T03:35:47.561Z,3.10
2019-03-08T03:38:17.072Z,3.42
2019-03-08T03:40:46.561Z,2.90
2019-03-08T03:43:16.071Z,3.33
2019-03-08T03:45:45.586Z,4.12
2019-03-08T03:48:15.095Z,3.50
2019-03-08T03:50:44.605Z,3.20
2019-03-08T03:53:14.110Z,7.40
2019-03-08T03:55:43.625Z,3.70
2019-03-08T03:58:13.126Z,3.70
2019-03-08T04:00:42.641Z,2.85
2019-03-08T04:03:12.139Z,4.42
2019-03-08T04:05:41.651Z,2.47
2019-03-08T04:08:11.155Z,5.55
2019-03-08T04:10:40.682Z,5.45
2019-03-08T04:13:10.190Z,6.53
2019-03-08T04:15:39.718Z,6.83
2019-03-08T04:18:09.222Z,4.70
2019-03-08T04:20:38.826Z,8.53
2019-03-08T04:23:08.323Z,8.40
2019-03-08T04:25:37.839Z,5.35
2019-03-08T04:28:07.531Z,7.10
2019-03-08T04:30:37.067Z,8.57
2019-03-08T04:33:06.632Z,7.60
2019-03-08T04:35:36.172Z,6.30
2019-03-08T04:38:05.679Z,7.90
2019-03-08T04:40:36.182Z,8.35
2019-03-08T04:43:05.696Z,8.33
2019-03-08T04:45:35.237Z,10.15
2019-03-08T04:48:04.823Z,7.58
2019-03-08T04:50:34.360Z,6.37
2019-03-08T04:53:03.877Z,7.92
2019-03-08T04:55:33.657Z,6.72
2019-03-08T04:58:03.189Z,8.47
2019-03-08T05:00:32.699Z,6.57
2019-03-08T05:03:02.227Z,8.40
2019-03-08T05:05:31.807Z,8.65
2019-03-08T05:08:01.318Z,8.73
2019-03-08T05:10:31.823Z,10.03
2019-03-08T05:13:01.396Z,9.53
2019-03-08T05:15:30.906Z,7.90
2019-03-08T05:18:00.440Z,9.95
2019-03-08T05:20:29.935Z,11.65
2019-03-08T05:22:59.724Z,14.05
2019-03-08T05:25:29.234Z,17.27
2019-03-08T05:27:58.753Z,16.00
2019-03-08T05:30:28.248Z,16.90
2019-03-08T05:32:57.755Z,15.10
2019-03-08T05:35:27.260Z,15.75
2019-03-08T05:37:56.779Z,9.38
2019-03-08T05:40:26.295Z,13.10
2019-03-08T05:42:55.805Z,13.48
2019-03-08T05:45:25.315Z,17.27
2019-03-08T05:47:54.835Z,14.85
2019-03-08T05:50:24.736Z,13.27
2019-03-08T05:52:54.252Z,14.13
2019-03-08T05:55:23.771Z,16.27
2019-03-08T05:57:53.284Z,15.63
2019-03-08T06:00:31.601Z,15.33
2019-03-08T06:02:54.663Z,14.25
2019-03-08T06:05:24.197Z,15.75
2019-03-08T06:07:53.718Z,16.35
2019-03-08T06:10:34.980Z,17.27
2019-03-08T06:13:05.229Z,15.57
2019-03-08T06:15:34.830Z,16.60
2019-03-08T06:18:04.412Z,16.70
2019-03-08T06:20:33.923Z,23.77
2019-03-08T06:23:04.662Z,16.85
2019-03-08T06:25:34.487Z,20.80
2019-03-08T06:28:04.050Z,15.72
2019-03-08T06:30:33.912Z,17.97
2019-03-08T06:33:03.599Z,19.98
2019-03-08T06:35:33.119Z,17.55
2019-03-08T06:38:02.655Z,15.32
2019-03-08T06:40:32.191Z,14.00
2019-03-08T06:43:01.724Z,10.93
2019-03-08T06:45:31.416Z,15.83
2019-03-08T06:48:00.936Z,11.80
2019-03-08T06:50:30.447Z,12.83
2019-03-08T06:53:00.872Z,10.73
2019-03-08T06:55:30.392Z,13.27
2019-03-08T06:58:03.839Z,10.28
2019-03-08T07:00:44.811Z,8.58
2019-03-08T07:03:14.498Z,7.80
2019-03-08T07:05:44.086Z,11.17
2019-03-08T07:08:13.746Z,12.40
2019-03-08T07:10:43.590Z,12.87
2019-03-08T07:13:13.141Z,9.50
2019-03-08T07:15:42.634Z,9.70
2019-03-08T07:18:13.155Z,7.77
2019-03-08T07:20:48.244Z,13.23
2019-03-08T07:23:41.456Z,14.90
2019-03-08T07:26:20.473Z,16.32
2019-03-08T07:29:09.022Z,16.95
2019-03-08T07:31:46.302Z,12.40
2019-03-08T07:34:34.855Z,16.60
2019-03-08T07:37:29.590Z,14.57
2019-03-08T07:40:26.100Z,24.77
2019-03-08T07:43:01.876Z,25.12
2019-03-08T07:45:44.359Z,22.57
2019-03-08T07:48:23.495Z,27.20
2019-03-08T07:51:02.004Z,23.43
2019-03-08T07:53:40.220Z,25.30
2019-03-08T07:56:23.842Z,27.40
2019-03-08T07:59:15.806Z,32.30
2019-03-08T08:01:54.902Z,36.83
2019-03-08T08:04:46.860Z,29.77
2019-03-08T08:07:35.200Z,32.33
2019-03-08T08:10:13.227Z,35.70
2019-03-08T08:13:05.156Z,34.87
2019-03-08T08:15:56.585Z,30.90
2019-03-08T08:18:35.993Z,24.55
2019-03-08T08:21:12.351Z,39.35
2019-03-08T08:24:00.883Z,35.57
2019-03-08T08:26:48.377Z,33.13
2019-03-08T08:29:40.069Z,43.23
2019-03-08T08:32:35.765Z,36.93
2019-03-08T08:35:25.432Z,28.07
2019-03-08T08:38:14.006Z,36.83
2019-03-08T08:40:54.898Z,39.65
2019-03-08T08:43:42.439Z,36.60
2019-03-08T08:46:31.019Z,34.50
2019-03-08T08:49:12.568Z,39.38
2019-03-08T08:51:52.399Z,33.58
2019-03-08T08:54:32.658Z,32.33
2019-03-08T08:57:20.484Z,40.23
2019-03-08T09:00:00.363Z,31.10
2019-03-08T09:02:45.205Z,41.80
2019-03-08T09:05:23.220Z,33.83
2019-03-08T09:08:21.053Z,33.60
2019-03-08T09:11:01.598Z,33.50
2019-03-08T09:13:46.919Z,29.87
2019-03-08T09:16:28.714Z,43.42
2019-03-08T09:19:24.228Z,39.20
2019-03-08T09:22:19.146Z,39.43
2019-03-08T09:24:58.358Z,40.58
2019-03-08T09:27:46.910Z,44.80
2019-03-08T09:30:43.770Z,36.40
2019-03-08T09:33:32.493Z,34.20
2019-03-08T09:36:27.298Z,33.88
2019-03-08T09:39:31.282Z,36.90
2019-03-08T09:42:18.604Z,31.02
2019-03-08T09:45:13.403Z,18.82
2019-03-08T09:48:00.363Z,20.65
2019-03-08T09:50:44.612Z,22.30
2019-03-08T09:53:29.109Z,20.40
2019-03-08T09:56:11.993Z,22.73
2019-03-08T09:59:00.721Z,20.60
2019-03-08T10:01:58.428Z,15.13
2019-03-08T10:04:46.987Z,20.05
2019-03-08T10:07:24.864Z,22.37
2019-03-08T10:10:01.233Z,19.00
2019-03-08T10:12:41.291Z,23.30
2019-03-08T10:15:29.046Z,28.52
2019-03-08T10:18:32.974Z,23.95
2019-03-08T10:21:21.549Z,32.85
2019-03-08T10:24:13.290Z,25.80
2019-03-08T10:27:07.736Z,29.87
2019-03-08T10:30:04.527Z,26.27
2019-03-08T10:33:11.562Z,30.43
2019-03-08T10:35:58.853Z,32.38
2019-03-08T10:38:46.457Z,27.23
2019-03-08T10:41:23.053Z,29.05
2019-03-08T10:44:08.876Z,33.60
2019-03-08T10:46:44.204Z,21.75
2019-03-08T10:49:22.079Z,28.23
2019-03-08T10:52:04.389Z,26.05
2019-03-08T10:54:43.416Z,26.68
2019-03-08T10:57:50.559Z,34.55
2019-03-08T11:00:44.824Z,29.70
2019-03-08T11:03:23.610Z,25.92
2019-03-08T11:06:02.881Z,24.47
2019-03-08T11:08:57.530Z,29.52
2019-03-08T11:11:52.227Z,30.02
2019-03-08T11:14:28.593Z,29.40
2019-03-08T11:17:13.076Z,37.93
2019-03-08T11:20:20.045Z,25.70
2019-03-08T11:23:11.514Z,23.65
2019-03-08T11:26:00.060Z,28.42
2019-03-08T11:28:53.182Z,27.42
2019-03-08T11:31:41.747Z,28.80
2019-03-08T11:34:33.336Z,24.75
2019-03-08T11:37:20.764Z,31.15
2019-03-08T11:40:15.280Z,29.25
2019-03-08T11:42:51.445Z,31.57
2019-03-08T11:45:45.869Z,33.30
2019-03-08T11:48:33.070Z,34.17
2019-03-08T11:51:26.955Z,26.87
2019-03-08T11:54:05.645Z,37.03
2019-03-08T11:57:01.885Z,22.20
2019-03-08T11:59:54.606Z,29.77
2019-03-08T12:02:52.057Z,24.70
2019-03-08T12:05:39.348Z,29.33
2019-03-08T12:08:33.820Z,27.93
2019-03-08T12:11:29.175Z,27.20
2019-03-08T12:14:05.482Z,26.60
2019-03-08T12:16:52.702Z,22.02
2019-03-08T12:19:38.889Z,16.87
2019-03-08T12:22:33.081Z,18.30
2019-03-08T12:25:16.709Z,19.10
2019-03-08T12:27:58.600Z,30.62
2019-03-08T12:30:39.583Z,16.23
2019-03-08T12:33:36.194Z,25.92
2019-03-08T12:36:36.869Z,18.20
2019-03-08T12:39:12.920Z,17.55
2019-03-08T12:41:47.458Z,17.07
2019-03-08T12:44:22.472Z,23.70
2019-03-08T12:47:11.049Z,16.17
2019-03-08T12:49:48.002Z,26.05
2019-03-08T12:52:35.519Z,19.85
2019-03-08T12:55:30.712Z,20.55
2019-03-08T12:58:24.108Z,16.05
2019-03-08T13:01:00.049Z,16.90
2019-03-08T13:03:49.948Z,21.47
2019-03-08T13:06:25.978Z,16.45
2019-03-08T13:09:05.288Z,19.60
2019-03-08T13:11:36.727Z,14.60
2019-03-08T13:14:06.262Z,23.90
2019-03-08T13:16:37.826Z,12.82
2019-03-08T13:19:07.406Z,17.30
2019-03-08T13:21:36.939Z,18.10
2019-03-08T13:24:06.545Z,21.50
2019-03-08T13:26:36.069Z,21.07
2019-03-08T13:29:05.618Z,19.17
2019-03-08T13:31:35.174Z,16.12
2019-03-08T13:34:05.780Z,19.05
2019-03-08T13:36:35.307Z,22.48
2019-03-08T13:39:07.026Z,18.10
2019-03-08T13:41:36.648Z,18.45
2019-03-08T13:44:06.279Z,20.02
2019-03-08T13:46:35.899Z,25.17
2019-03-08T13:49:05.452Z,16.03
2019-03-08T13:51:35.034Z,14.18
2019-03-08T13:54:04.674Z,24.20
2019-03-08T13:56:34.218Z,21.07
2019-03-08T13:59:03.767Z,15.30
2019-03-08T14:01:33.320Z,22.82
2019-03-08T14:04:02.887Z,24.35
2019-03-08T14:06:32.853Z,21.73
2019-03-08T14:09:02.479Z,23.62
2019-03-08T14:11:33.498Z,27.47
2019-03-08T14:14:03.012Z,27.90
2019-03-08T14:16:33.048Z,28.30
2019-03-08T14:19:02.873Z,26.37
2019-03-08T14:21:32.419Z,24.30
2019-03-08T14:24:01.940Z,18.23
2019-03-08T14:26:31.474Z,21.82
2019-03-08T14:29:01.029Z,22.15
2019-03-08T14:31:37.026Z,19.13
2019-03-08T14:34:10.734Z,21.73
2019-03-08T14:36:39.208Z,33.30
2019-03-08T14:39:09.275Z,30.05
2019-03-08T14:41:44.148Z,21.03
2019-03-08T14:44:38.816Z,30.73
2019-03-08T14:47:13.586Z,29.27
2019-03-08T14:49:43.090Z,26.23
2019-03-08T14:52:12.620Z,21.77
2019-03-08T14:54:45.997Z,24.10
2019-03-08T14:57:26.380Z,18.35
2019-03-08T14:59:44.658Z,23.10
2019-03-08T15:02:14.721Z,21.75
2019-03-08T15:04:44.242Z,27.85
2019-03-08T15:07:13.758Z,18.77
2019-03-08T15:09:43.313Z,20.68
2019-03-08T15:12:16.527Z,22.00
2019-03-08T15:14:44.061Z,25.62
2019-03-08T15:17:16.837Z,24.70
2019-03-08T15:19:44.832Z,29.73
2019-03-08T15:22:14.356Z,32.75
2019-03-08T15:24:43.911Z,27.37
2019-03-08T15:27:13.477Z,28.73
2019-03-08T15:29:43.021Z,27.52
2019-03-08T15:32:12.547Z,28.77
2019-03-08T15:34:42.075Z,32.40
2019-03-08T15:37:11.617Z,33.53
2019-03-08T15:39:41.182Z,23.25
2019-03-08T15:42:10.731Z,22.70
2019-03-08T15:44:40.273Z,18.27
2019-03-08T15:47:13.589Z,19.62
2019-03-08T15:49:41.034Z,20.48
2019-03-08T15:52:10.575Z,19.27
2019-03-08T15:54:40.117Z,13.77
2019-03-08T15:57:09.654Z,13.73
2019-03-08T15:59:39.205Z,16.80
2019-03-08T16:02:08.814Z,10.28
2019-03-08T16:04:38.359Z,10.55
2019-03-08T16:07:08.248Z,11.18
2019-03-08T16:09:37.768Z,9.38
2019-03-08T16:12:07.382Z,13.78
2019-03-08T16:14:36.925Z,11.25
2019-03-08T16:17:06.531Z,13.22
2019-03-08T16:19:36.079Z,20.82
2019-03-08T16:22:05.730Z,18.85
2019-03-08T16:24:35.256Z,12.55
2019-03-08T16:27:04.780Z,13.18
2019-03-08T16:29:34.273Z,13.55
2019-03-08T16:32:09.060Z,13.05
2019-03-08T16:34:38.491Z,11.70
2019-03-08T16:37:23.126Z,14.70
2019-03-08T16:40:01.685Z,18.15
2019-03-08T16:42:42.208Z,14.68
2019-03-08T16:45:29.757Z,17.12
2019-03-08T16:48:24.270Z,19.90
2019-03-08T16:51:00.310Z,20.57
2019-03-08T16:53:39.677Z,18.10
2019-03-08T16:56:31.266Z,26.52
2019-03-08T16:59:13.063Z,13.40
2019-03-08T17:02:04.679Z,19.87
2019-03-08T17:04:59.329Z,19.67
2019-03-08T17:07:35.161Z,19.50
2019-03-08T17:10:17.845Z,14.85
2019-03-08T17:13:13.093Z,20.27
2019-03-08T17:15:51.365Z,15.77
2019-03-08T17:18:32.550Z,17.70
2019-03-08T17:21:13.977Z,18.60
2019-03-08T17:24:02.674Z,16.00
2019-03-08T17:26:42.189Z,15.10
2019-03-08T17:29:40.288Z,19.27
2019-03-08T17:32:34.543Z,18.60
2019-03-08T17:35:26.914Z,23.50
2019-03-08T17:38:34.053Z,19.27
2019-03-08T17:41:41.742Z,15.77
2019-03-08T17:44:19.007Z,20.52
2019-03-08T17:47:16.869Z,17.07
2019-03-08T17:50:04.191Z,23.17
2019-03-08T17:52:55.834Z,14.43
2019-03-08T17:55:43.295Z,14.63
2019-03-08T17:58:29.267Z,15.23
2019-03-08T18:01:10.212Z,22.93
2019-03-08T18:03:53.546Z,15.18
2019-03-08T18:06:33.591Z,18.63
2019-03-08T18:09:15.704Z,16.90
2019-03-08T18:12:00.904Z,21.00
2019-03-08T18:14:39.086Z,18.10
2019-03-08T18:17:18.826Z,16.83
2019-03-08T18:20:06.299Z,16.77
2019-03-08T18:22:41.597Z,19.77
2019-03-08T18:25:22.166Z,35.23
2019-03-08T18:28:05.794Z,28.33
2019-03-08T18:30:45.957Z,15.05
2019-03-08T18:33:37.581Z,17.10
2019-03-08T18:36:16.534Z,15.60
2019-03-08T18:38:53.900Z,15.15
2019-03-08T18:41:42.906Z,16.97
2019-03-08T18:44:19.528Z,15.88
2019-03-08T18:47:03.188Z,18.87
2019-03-08T18:49:51.746Z,17.10
2019-03-08T18:52:34.322Z,17.73
2019-03-08T18:55:15.198Z,17.87
2019-03-08T18:57:52.887Z,16.80
2019-03-08T19:00:32.838Z,14.43
2019-03-08T19:03:14.487Z,17.47
2019-03-08T19:05:55.158Z,19.55
2019-03-08T19:08:55.823Z,12.55
2019-03-08T19:11:43.338Z,19.12
2019-03-08T19:14:35.417Z,13.07
2019-03-08T19:17:19.238Z,18.50
2019-03-08T19:20:06.826Z,15.35
2019-03-08T19:22:45.097Z,13.30
2019-03-08T19:25:26.833Z,15.08
2019-03-08T19:28:03.745Z,16.67
2019-03-08T19:30:38.742Z,30.10
2019-03-08T19:33:17.248Z,28.90
2019-03-08T19:35:53.070Z,21.62
2019-03-08T19:38:50.435Z,17.77
2019-03-08T19:41:29.670Z,16.50
2019-03-08T19:44:16.998Z,21.93
2019-03-08T19:47:02.769Z,15.93
2019-03-08T19:49:49.269Z,16.70
2019-03-08T19:52:29.431Z,14.03
2019-03-08T19:55:24.087Z,16.90
2019-03-08T19:58:11.438Z,15.35
2019-03-08T20:01:00.178Z,16.67
2019-03-08T20:03:35.627Z,19.27
2019-03-08T20:06:24.654Z,14.15
2019-03-08T20:09:13.214Z,18.90
2019-03-08T20:11:56.891Z,17.57
2019-03-08T20:14:34.475Z,22.43
2019-03-08T20:17:26.108Z,18.77
2019-03-08T20:20:10.382Z,19.75
2019-03-08T20:23:02.092Z,22.90
2019-03-08T20:25:53.487Z,20.50
2019-03-08T20:28:33.850Z,16.10
2019-03-08T20:31:21.272Z,16.30
2019-03-08T20:34:04.918Z,20.72
2019-03-08T20:36:43.058Z,20.87
2019-03-08T20:39:30.234Z,24.83
2019-03-08T20:42:04.467Z,30.25
2019-03-08T20:44:38.367Z,19.67
2019-03-08T20:47:11.672Z,18.60
2019-03-08T20:49:41.259Z,18.85
2019-03-08T20:52:10.812Z,16.23
2019-03-08T20:54:40.395Z,19.20
2019-03-08T20:57:09.937Z,20.67
2019-03-08T20:59:39.466Z,23.30
2019-03-08T21:02:09.189Z,47.03
2019-03-08T21:04:38.818Z,27.87
2019-03-08T21:07:08.435Z,18.70
2019-03-08T21:09:37.993Z,20.50
2019-03-08T21:12:07.593Z,26.83
2019-03-08T21:14:37.158Z,20.43
2019-03-08T21:17:06.807Z,19.55
2019-03-08T21:19:37.726Z,20.88
2019-03-08T21:22:07.287Z,17.50
2019-03-08T21:24:37.791Z,13.10
2019-03-08T21:27:07.373Z,16.30
2019-03-08T21:29:37.815Z,15.63
2019-03-08T21:32:07.654Z,13.73
2019-03-08T21:34:37.855Z,10.05
2019-03-08T21:37:07.399Z,6.62
2019-03-08T21:39:38.026Z,5.90
2019-03-08T21:42:07.626Z,3.73
2019-03-08T21:44:37.310Z,10.50
2019-03-08T21:47:06.852Z,7.42
2019-03-08T21:49:36.436Z,8.03
2019-03-08T21:52:05.957Z,4.27
2019-03-08T21:54:35.506Z,5.63
2019-03-08T21:57:05.318Z,3.77
2019-03-08T21:59:35.920Z,3.15
2019-03-08T22:02:05.646Z,4.10
2019-03-08T22:04:42.406Z,4.65
2019-03-08T22:07:11.921Z,6.93
2019-03-08T22:09:59.197Z,8.03
2019-03-08T22:12:28.750Z,6.22
2019-03-08T22:14:58.297Z,6.97
2019-03-08T22:17:27.913Z,6.10
2019-03-08T22:19:57.451Z,6.67
2019-03-08T22:22:26.971Z,9.33
2019-03-08T22:24:56.506Z,7.53
2019-03-08T22:27:26.047Z,8.58
2019-03-08T22:29:55.898Z,9.70
2019-03-08T22:32:25.451Z,11.90
2019-03-08T22:34:55.005Z,9.40
2019-03-08T22:37:24.563Z,12.00
2019-03-08T22:39:54.078Z,9.97
2019-03-08T22:42:23.895Z,11.50
2019-03-08T22:44:53.469Z,12.47
2019-03-08T22:47:23.013Z,14.50
2019-03-08T22:49:53.533Z,12.87
2019-03-08T22:52:23.080Z,13.03
2019-03-08T22:54:53.010Z,17.87
2019-03-08T22:57:22.536Z,15.45
2019-03-08T22:59:52.111Z,14.10
2019-03-08T23:02:22.689Z,15.03
2019-03-08T23:04:52.216Z,15.37
2019-03-08T23:07:22.050Z,14.80
2019-03-08T23:09:51.585Z,12.60
2019-03-08T23:12:21.122Z,16.03
2019-03-08T23:14:50.727Z,13.48
2019-03-08T23:17:20.426Z,19.45
2019-03-08T23:19:59.496Z,14.40
2019-03-08T23:22:29.047Z,17.70
2019-03-08T23:24:59.752Z,15.13
2019-03-08T23:27:34.037Z,18.57
2019-03-08T23:30:09.297Z,17.92
2019-03-08T23:32:48.133Z,17.25
2019-03-08T23:35:17.668Z,16.77
2019-03-08T23:37:47.352Z,14.60
2019-03-08T23:40:16.977Z,18.70
2019-03-08T23:42:46.536Z,18.70
2019-03-08T23:45:16.092Z,10.95
2019-03-08T23:47:45.715Z,26.20
2019-03-08T23:50:15.372Z,15.17
2019-03-08T23:52:44.981Z,16.50
2019-03-08T23:55:14.541Z,16.23
2019-03-08T23:57:44.113Z,27.17
